In Rescue
 
Open Full Screen Window  High Contrast Mode
Wind Gusting 00 knots
08
July 24, 2024 5:48 PM EDT
Weather Information
Wind Direction
  280 °
Wind Speed
  08 kt (9 mph)
Wind Gust
  00 kt (0 mph)
Altimeter
30.12 in
Visibility
10 SM
Temperature
23° C
73° F
Dewpoint
14° C
57° F
Humidity
57%
1hr Rain Fall
00.00 in.
24hr Rain Fall
00.00 in.
Sky Condition
Broken @ 4,000 ft
Broken @ 3,000 ft
MVFR

METAR KMGN 242148Z AUTO 28008KT 10SM BKN030 BKN040 23/14 A3012 RMK AO2

FAA Disclaimer: The data displayed is for advisory purposes only and is not to be used for flight planning or operations.